Aktualne dane pomiarowe

Uwaga, wersja testowa! Automatyczne pobieranie danych za pomocą narzędzi lub skryptów to umożliwiających jest zabronione.

Dane meteo z obszaru Polski uzyskane na podstawie depesz SYNOP pobieranych co godzinę z NWS. Najedź myszką na symbol przedstawiony w tabeli, aby uzyskać informacje co do jego znaczenia. Prosimy pamiętać, że to testowa wersja strony, która jeszcze nie jest ukończona. Stworzono również jest krótki FAQ dotyczący korzystania z tej podstrony Anomalie temperatury w chwili obecnej odniesione są do okresu referencyjnego 1951-2016. Okres ten będzie później zmieniony na 1981-2010. Kliknij ikonę aby pobrać plik CSV. Kliknij ikonę aby wygenerować mapę synoptyczną dla danego terminu.

Wybierz Datę:    

        

Kłodzko (12520)

Dane terminowe dla wybranej stacji. Kliknij datę, aby otrzymać dane z tego terminu dla wszystkich stacji.

TemperaturaZachmurzenieWiatrCiśnienieOpadyPogoda
 Data t td wb tx tn tg rh  Nt Nl Cl Cm Ch ws wd g1 g2 wx mslp ppp ch 24h 12h t ww ww w1 w2  
2019-08-08 23:00:00 14.1 12.1 12.7--- 8850.0wx-2wx--21014.9 972.7 0.9----22----
2019-08-08 22:00:00 14.9 11.9 12.9--- 8250.0wx-wx2wx--21014.9 972.8 1.5----22----
2019-08-08 21:00:00 17.0 12.1 13.8--- 7350.0wx-wx3wx--31014.0 972.2 1.3---------
2019-08-08 20:00:00 18.6 11.2 14.0--- 6250.0wx-wxwx2wx---1013.3 971.8 0.8---------
2019-08-08 19:00:00 20.6 10.4 14.5--- 5250.0wxwxwxwxwx1wx--11012.5 971.3 0.4---------
2019-08-08 18:00:00 22.0 11.1 15.4 24.3 18.2- 5050.0wxwxwxwxwx2wx-1021011.9 970.9 -0.3- 0.012------
2019-08-08 17:00:00 23.8 11.5 16.4--- 4650.0wxwxwxwxwx3wx--31011.7 971.0 -0.2---------
2019-08-08 16:00:00 23.8 12.4 16.8--- 4950.0wxwxwxwxwx6wx---1011.6 970.9 -0.5---------
2019-08-08 15:00:00 23.8 12.1 16.7--- 4850.0wxwxwxwxwx7wx-1071012.0 971.2 -0.7---------
2019-08-08 14:00:00 23.8 12.4 16.8--- 4945.0wxwxwxwx5wx-951012.0 971.2 -0.9---------
2019-08-08 13:00:00 23.0 12.9 16.7--- 5345.0wxwxwxwx4wx--41012.3 971.4 -0.1---------
2019-08-08 12:00:00 22.3 13.4 16.7--- 5745.0wxwxwxwxwx5wx-1151012.9 971.9 0.4- 0.06------
2019-08-08 11:00:00 21.4 13.3 16.3--- 6040.0wxwxwxwx4wx--41013.2 972.1 0.8---------
2019-08-08 10:00:00 22.5 13.8 17.0--- 5840.0wxwxwxwx5wx-1151012.4 971.5 0.3---------
2019-08-08 09:00:00 20.7 13.6 16.1--- 6440.0wxwxwxwx5wx--51012.7 971.5 0.8---------
2019-08-08 08:00:00 19.9 14.0 16.0--- 6940.0wxwxwxwxwx5wx--51012.6 971.3 1.0---------
2019-08-08 07:00:00 19.0 13.8 15.6--- 7230.0wxwxwxwx5wx--51012.6 971.2 1.3---------
2019-08-08 06:00:00 18.2 13.9 15.3 22.1 15.3 14 7625.0wxwxwx4wx--41012.2 970.7 1.5 0.1 0.112----- 5.6
2019-08-08 05:00:00 16.9 14.7 15.4--- 8718.0wxwxwxwxwx3wx---1012.0 970.3 1.7---------
2019-08-08 04:00:00 15.6 14.1 14.5--- 9118.0wxwxwxwxwx1wx---1011.8 969.9 1.3---------
2019-08-08 03:00:00 16.3 14.7 15.2--- 9020.0wxwxwxwxwx3wx--31010.9 969.2 1.2---------
2019-08-08 02:00:00 16.3 14.8 15.2--- 9150.0wxwxwxwxwx2wx--21010.3 968.6 0.9---------
2019-08-08 01:00:00 15.6 14.8 15.0--- 9550.0wxwxwxwx1wx--11010.4 968.6 1.7---------
2019-08-08 00:00:00 16.6 15.3 15.7--- 9250.0wxwxwxwxwx2wx-921009.6 968.0 0.9- 0.16wx-w1--
2019-08-07 23:00:00 18.1 15.7 16.4--- 8650.0wxwxwx3wx--31009.1 967.7 0.9---------
2019-08-07 22:00:00 18.1 16.1 16.7--- 8850.0wxwxwxwx3wx--31008.3 966.9 0.1---------
2019-08-07 21:00:00 18.1 16.4 16.9--- 9030.0wxwxwxwx3wx-931008.5 967.1 1.1---wx-w1--
2019-08-07 20:00:00 18.8 16.2 17.0--- 8530.0wxwxwxwx3wx---1008.1 966.8 0.8---wx---
2019-08-07 19:00:00 21.0 15.3 17.2--- 7035.0wxwxwxwx3wx---1007.8 966.8 1.4---------
2019-08-07 18:00:00 22.0 15.1 17.5 26.6 17.2- 6525.0wxwxwxwxwx4wx-941006.8 966.0 0.0- 0.012wx---
2019-08-07 17:00:00 23.7 14.4 17.8--- 5615.0wxwxwxwxwx7wx--71006.5 966.0 -0.2---wx---
2019-08-07 16:00:00 25.7 16.8 19.8--- 5835.0wxwxwxwxwx4wx--41005.6 965.4 -1.9---------
2019-08-07 15:00:00 26.6 15.9 19.7--- 5250.0wxwxwxwxwx6wx-961006.1 966.0 -1.6---------
2019-08-07 14:00:00 25.6 16.2 19.5--- 5650.0wxwxwxwxwx4wx---1006.5 966.2 -1.7---------
2019-08-07 13:00:00 25.1 17.0 19.7--- 6150.0wxwxwxwxwx4wx--41007.7 967.3 -1.0---------
2019-08-07 12:00:00 24.4 17.4 19.7--- 6550.0wxwxwxwxwx3wx-931008.1 967.6 -0.6- 0.06------
2019-08-07 11:00:00 23.9 17.2 19.4--- 6650.0wxwxwxwxwx4wx-941008.5 967.9 -0.1---------
2019-08-07 10:00:00 22.9 16.9 18.8--- 6945.0wxwxwxwxwx3wx--31009.1 968.3 0.0---------
2019-08-07 09:00:00 21.3 18.3 19.2--- 8345.0wxwxwxwxwx1wx---1009.2 968.2 0.2---------
2019-08-07 08:00:00 20.5 18.6 19.1--- 8935.0wxwxwxwxwx4wx--41009.1 968.0 -0.6---------
2019-08-07 07:00:00 18.4 17.1 17.5--- 9230.0wxwxwxwxwx1wx--11009.7 968.3 0.3---------
2019-08-07 06:00:00 17.3 16.2 16.5 22.2 15.6 15 9330.0wxwxwxwx2wx--21009.5 968.0 -0.3 6.9 7.012wx-w1w2- 6.6
2019-08-07 05:00:00 17.1 16.0 16.3--- 933.5wxwxwx1wx--11010.2 968.6 0.1---wx-w1w2--
2019-08-07 04:00:00 17.6 16.3 16.7--- 9230.0wxwxwxwx4wx---1009.5 968.0 -0.9---wx-w1--
2019-08-07 03:00:00 16.1 15.5 15.6--- 9615.0wxwxwx2wx--21010.0 968.3 -0.6---wx-w1--
2019-08-07 02:00:00 16.2 15.1 15.4--- 9335.0wxwxwx1wx--11010.2 968.5 -0.9---wx22--
2019-08-07 01:00:00 16.2 15.2 15.5--- 9425.0wxwxwxwxwx1wx--11010.6 968.9 -0.3---wx22--
2019-08-07 00:00:00 16.3 14.7 15.2--- 9045.0wxwxwxwxwx3wx--31010.6 968.9 0.0--6wx22w1--
1.1 ms

 

Print Friendly, PDF & Email